createdAt,value
2022-11-13T00:02:40.688Z,93.97
2022-11-13T00:05:20.598Z,79.32
2022-11-13T00:08:07.605Z,72.25
2022-11-13T00:10:40.699Z,76.43
2022-11-13T00:13:30.315Z,72.13
2022-11-13T00:16:24.621Z,66.07
2022-11-13T00:19:18.599Z,58.28
2022-11-13T00:22:12.604Z,73.40
2022-11-13T00:25:06.608Z,89.15
2022-11-13T00:27:53.608Z,127.78
2022-11-13T00:30:35.600Z,89.22
2022-11-13T00:33:54.922Z,63.70
2022-11-13T00:36:36.619Z,93.68
2022-11-13T00:39:09.701Z,99.28
2022-11-13T00:41:56.618Z,66.68
2022-11-13T00:44:29.698Z,63.10
2022-11-13T00:47:16.622Z,52.20
2022-11-13T00:49:56.618Z,67.20
2022-11-13T00:52:50.638Z,50.05
2022-11-13T00:55:37.627Z,73.53
2022-11-13T00:58:11.761Z,53.47
2022-11-13T01:00:58.622Z,36.85
2022-11-13T01:03:31.699Z,52.00
2022-11-13T01:06:22.633Z,47.95
2022-11-13T01:08:56.746Z,57.05
2022-11-13T01:11:43.643Z,60.97
2022-11-13T01:14:16.710Z,55.90
2022-11-13T01:17:03.608Z,45.50
2022-11-13T01:19:36.730Z,53.05
2022-11-13T01:22:30.623Z,50.92
2022-11-13T01:25:24.642Z,59.10
2022-11-13T01:28:18.634Z,79.93
2022-11-13T01:31:05.631Z,68.30
2022-11-13T01:33:38.691Z,63.70
2022-11-13T01:36:31.631Z,63.72
2022-11-13T01:39:04.726Z,59.38
2022-11-13T01:41:51.643Z,57.10
2022-11-13T01:44:26.727Z,61.72
2022-11-13T01:47:14.628Z,53.50
2022-11-13T01:49:49.702Z,48.50
2022-11-13T01:52:45.640Z,59.70
2022-11-13T01:55:21.717Z,52.78
2022-11-13T01:58:11.647Z,71.53
2022-11-13T02:00:51.651Z,44.03
2022-11-13T02:03:45.667Z,49.08
2022-11-13T02:06:36.714Z,41.55
2022-11-13T02:09:10.746Z,52.28
2022-11-13T02:11:58.663Z,43.03
2022-11-13T02:14:34.709Z,48.47
2022-11-13T02:17:27.675Z,45.38
2022-11-13T02:20:04.734Z,42.40
2022-11-13T02:23:13.667Z,39.03
2022-11-13T02:26:07.642Z,43.58
2022-11-13T02:29:01.672Z,39.95
2022-11-13T02:31:48.667Z,35.60
2022-11-13T02:34:21.730Z,40.20
2022-11-13T02:37:08.670Z,35.45
2022-11-13T02:39:41.723Z,33.90
2022-11-13T02:42:28.684Z,36.83
2022-11-13T02:45:01.751Z,39.95
2022-11-13T02:47:48.665Z,34.90
2022-11-13T02:50:22.727Z,35.67
2022-11-13T02:53:10.645Z,33.42
2022-11-13T02:55:43.765Z,31.13
2022-11-13T02:58:31.022Z,41.42
2022-11-13T03:01:04.767Z,39.85
2022-11-13T03:03:58.896Z,42.28
2022-11-13T03:06:32.752Z,41.45
2022-11-13T03:09:19.678Z,40.20
2022-11-13T03:11:52.735Z,42.22
2022-11-13T03:14:39.689Z,48.55
2022-11-13T03:17:19.677Z,47.47
2022-11-13T03:20:06.666Z,46.38
2022-11-13T03:22:46.695Z,44.45
2022-11-13T03:25:33.702Z,43.70
2022-11-13T03:28:13.740Z,34.47
2022-11-13T03:31:07.720Z,35.47
2022-11-13T03:34:01.679Z,37.95
2022-11-13T03:36:48.701Z,42.75
2022-11-13T03:39:22.572Z,41.00
2022-11-13T03:42:09.717Z,44.17
2022-11-13T03:44:42.793Z,43.50
2022-11-13T03:47:29.730Z,44.22
2022-11-13T03:50:09.720Z,45.63
2022-11-13T03:52:56.699Z,44.53
2022-11-13T03:55:29.807Z,48.95
2022-11-13T03:58:16.696Z,38.05
2022-11-13T04:00:50.789Z,40.05
2022-11-13T04:03:37.731Z,47.78
2022-11-13T04:06:17.737Z,40.45
2022-11-13T04:09:04.703Z,47.22
2022-11-13T04:11:44.700Z,49.25
2022-11-13T04:14:38.702Z,45.50
2022-11-13T04:17:32.696Z,49.47
2022-11-13T04:20:19.731Z,50.20
2022-11-13T04:22:52.790Z,47.42
2022-11-13T04:25:39.725Z,41.13
2022-11-13T04:28:14.618Z,73.85
2022-11-13T04:31:01.724Z,45.75
2022-11-13T04:33:34.794Z,47.90
2022-11-13T04:36:21.724Z,42.45
2022-11-13T04:38:54.754Z,40.92
2022-11-13T04:41:59.735Z,54.20
2022-11-13T04:44:32.833Z,50.92
2022-11-13T04:47:19.723Z,45.80
2022-11-13T04:49:52.835Z,50.15
2022-11-13T04:52:42.461Z,41.28
2022-11-13T04:55:16.840Z,42.38
2022-11-13T04:58:03.740Z,44.95
2022-11-13T05:00:36.837Z,47.95
2022-11-13T05:03:23.739Z,37.67
2022-11-13T05:05:56.832Z,40.15
2022-11-13T05:08:43.730Z,38.33
2022-11-13T05:11:18.535Z,42.97
2022-11-13T05:14:08.697Z,43.13
2022-11-13T05:16:42.841Z,42.60
2022-11-13T05:19:29.784Z,49.47
2022-11-13T05:22:02.891Z,45.85
2022-11-13T05:24:49.767Z,49.70
2022-11-13T05:27:22.834Z,41.08
2022-11-13T05:30:10.709Z,48.78
2022-11-13T05:32:50.725Z,56.85
2022-11-13T05:35:44.700Z,46.00
2022-11-13T05:38:31.939Z,46.90
2022-11-13T05:41:12.838Z,43.58
2022-11-13T05:44:02.576Z,50.85
2022-11-13T05:46:38.839Z,47.65
2022-11-13T05:49:25.749Z,39.72
2022-11-13T05:52:07.782Z,40.00
2022-11-13T05:55:01.774Z,37.75
2022-11-13T05:57:50.721Z,42.00
2022-11-13T06:00:33.783Z,38.13
2022-11-13T06:03:20.724Z,36.03
2022-11-13T06:06:00.733Z,33.63
2022-11-13T06:08:54.777Z,34.13
2022-11-13T06:11:48.851Z,38.92
2022-11-13T06:14:42.719Z,31.23
2022-11-13T06:17:29.781Z,32.28
2022-11-13T06:20:02.834Z,29.17
2022-11-13T06:22:56.728Z,31.80
2022-11-13T06:25:50.796Z,31.35
2022-11-13T06:28:37.794Z,32.13
2022-11-13T06:31:22.796Z,29.00
2022-11-13T06:34:18.799Z,30.65
2022-11-13T06:37:12.792Z,26.23
2022-11-13T06:40:06.869Z,28.33
2022-11-13T06:42:53.780Z,30.48
2022-11-13T06:45:33.773Z,27.25
2022-11-13T06:48:29.948Z,27.92
2022-11-13T06:51:25.774Z,26.95
2022-11-13T06:53:58.898Z,24.63
2022-11-13T06:56:49.780Z,27.88
2022-11-13T06:59:25.164Z,25.77
2022-11-13T07:02:11.786Z,28.73
2022-11-13T07:04:47.192Z,26.23
2022-11-13T07:07:33.781Z,25.33
2022-11-13T07:10:08.901Z,32.60
2022-11-13T07:12:55.778Z,25.08
2022-11-13T07:15:31.157Z,25.50
2022-11-13T07:18:21.490Z,27.08
2022-11-13T07:20:56.840Z,32.40
2022-11-13T07:23:51.813Z,46.33
2022-11-13T07:26:38.801Z,25.90
2022-11-13T07:29:11.898Z,26.30
2022-11-13T07:31:59.825Z,31.10
2022-11-13T07:34:34.899Z,29.80
2022-11-13T07:37:21.825Z,29.10
2022-11-13T07:39:57.179Z,31.30
2022-11-13T07:42:44.828Z,27.92
2022-11-13T07:45:17.960Z,30.70
2022-11-13T07:48:06.851Z,29.50
2022-11-13T07:50:50.799Z,34.17
2022-11-13T07:53:37.810Z,25.25
2022-11-13T07:56:18.843Z,25.83
2022-11-13T07:59:02.801Z,27.55
2022-11-13T08:01:50.846Z,33.05
2022-11-13T08:04:44.798Z,30.27
2022-11-13T08:07:31.841Z,28.13
2022-11-13T08:10:04.899Z,28.40
2022-11-13T08:12:52.802Z,26.23
2022-11-13T08:15:26.894Z,27.85
2022-11-13T08:18:14.795Z,26.85
2022-11-13T08:20:47.926Z,32.70
2022-11-13T08:23:44.846Z,33.80
2022-11-13T08:26:38.804Z,28.08
2022-11-13T08:29:26.850Z,28.45
2022-11-13T08:32:00.920Z,30.20
2022-11-13T08:34:48.839Z,27.30
2022-11-13T08:37:21.921Z,30.73
2022-11-13T08:40:09.838Z,30.17
2022-11-13T08:42:42.917Z,26.70
2022-11-13T08:45:30.799Z,24.10
2022-11-13T08:48:12.153Z,32.72
2022-11-13T08:51:02.856Z,29.75
2022-11-13T08:53:35.918Z,25.90
2022-11-13T08:56:24.853Z,24.50
2022-11-13T08:58:57.903Z,27.05
2022-11-13T09:01:38.849Z,24.98
2022-11-13T09:04:19.854Z,30.52
2022-11-13T09:06:52.928Z,25.98
2022-11-13T09:09:40.848Z,31.48
2022-11-13T09:12:22.852Z,25.55
2022-11-13T09:15:20.349Z,26.70
2022-11-13T09:18:12.910Z,25.52
2022-11-13T09:20:52.842Z,31.17
2022-11-13T09:23:47.861Z,27.42
2022-11-13T09:26:35.847Z,27.70
2022-11-13T09:29:10.285Z,30.67
2022-11-13T09:31:56.850Z,26.90
2022-11-13T09:34:33.864Z,25.60
2022-11-13T09:37:23.876Z,24.50
2022-11-13T09:39:56.899Z,27.08
2022-11-13T09:42:46.857Z,28.58
2022-11-13T09:45:30.897Z,24.27
2022-11-13T09:48:41.842Z,24.83
2022-11-13T09:51:37.839Z,24.05
2022-11-13T09:54:20.257Z,25.13
2022-11-13T09:57:25.812Z,25.17
2022-11-13T10:00:05.991Z,26.73
2022-11-13T10:03:07.230Z,26.48
2022-11-13T10:05:59.218Z,32.65
2022-11-13T10:09:04.849Z,28.15
2022-11-13T10:11:55.150Z,27.88
2022-11-13T10:14:56.852Z,29.90
2022-11-13T10:17:49.843Z,28.35
2022-11-13T10:20:39.146Z,25.40
2022-11-13T10:23:34.856Z,28.67
2022-11-13T10:26:36.922Z,28.15
2022-11-13T10:29:26.892Z,27.80
2022-11-13T10:32:07.848Z,27.88
2022-11-13T10:35:12.847Z,27.33
2022-11-13T10:37:58.744Z,31.27
2022-11-13T10:40:47.845Z,30.10
2022-11-13T10:43:32.275Z,32.10
2022-11-13T10:46:30.904Z,28.15
2022-11-13T10:49:04.926Z,29.58
2022-11-13T10:51:51.852Z,29.30
2022-11-13T10:54:33.965Z,31.63
2022-11-13T10:57:36.900Z,30.35
2022-11-13T11:00:27.964Z,30.98
2022-11-13T11:03:25.901Z,29.13
2022-11-13T11:06:06.971Z,33.78
2022-11-13T11:08:53.834Z,28.00
2022-11-13T11:11:51.877Z,32.88
2022-11-13T11:14:51.856Z,32.92
2022-11-13T11:18:00.909Z,33.42
2022-11-13T11:20:55.892Z,36.05
2022-11-13T11:23:39.941Z,31.25
2022-11-13T11:26:28.899Z,30.05
2022-11-13T11:29:25.956Z,29.48
2022-11-13T11:32:51.891Z,28.10
2022-11-13T11:35:30.920Z,30.73
2022-11-13T11:38:31.137Z,40.63
2022-11-13T11:41:33.848Z,44.10
2022-11-13T11:44:41.893Z,45.25
2022-11-13T11:47:35.879Z,33.92
2022-11-13T11:50:29.878Z,34.65
2022-11-13T11:53:18.016Z,35.10
2022-11-13T11:56:12.910Z,28.00
2022-11-13T11:59:18.944Z,31.00
2022-11-13T12:02:22.897Z,32.10
2022-11-13T12:05:23.987Z,30.52
2022-11-13T12:08:32.912Z,31.45
2022-11-13T12:11:29.980Z,32.80
2022-11-13T12:14:29.876Z,33.83
2022-11-13T12:17:17.788Z,28.90
2022-11-13T12:20:24.906Z,28.40
2022-11-13T12:23:18.971Z,30.17
2022-11-13T12:26:23.876Z,33.97
2022-11-13T12:29:06.012Z,28.05
2022-11-13T12:32:14.892Z,29.20
2022-11-13T12:34:58.904Z,26.38
2022-11-13T12:38:04.886Z,33.13
2022-11-13T12:41:06.914Z,23.67
2022-11-13T12:44:24.001Z,25.08
2022-11-13T12:47:17.901Z,27.08
2022-11-13T12:50:06.900Z,23.85
2022-11-13T12:52:39.970Z,25.10
2022-11-13T12:55:35.928Z,27.05
2022-11-13T12:58:28.526Z,24.23
2022-11-13T13:01:18.986Z,25.00
2022-11-13T13:04:06.971Z,24.00
2022-11-13T13:06:57.009Z,35.17
2022-11-13T13:09:35.972Z,33.20
2022-11-13T13:12:26.906Z,29.10
2022-11-13T13:15:03.082Z,23.80
2022-11-13T13:17:49.925Z,21.90
2022-11-13T13:20:23.025Z,24.25
2022-11-13T13:23:09.924Z,26.27
2022-11-13T13:25:50.928Z,25.73
2022-11-13T13:28:45.957Z,27.25
2022-11-13T13:31:52.910Z,27.30
2022-11-13T13:35:12.927Z,23.55
2022-11-13T13:38:22.004Z,26.40
2022-11-13T13:41:27.934Z,25.35
2022-11-13T13:44:06.024Z,30.92
2022-11-13T13:46:52.945Z,28.95
2022-11-13T13:49:29.020Z,25.08
2022-11-13T13:52:20.905Z,21.85
2022-11-13T13:55:01.929Z,22.55
2022-11-13T13:57:48.927Z,23.92
2022-11-13T14:00:31.950Z,23.83
2022-11-13T14:03:35.923Z,21.45
2022-11-13T14:06:28.932Z,23.42
2022-11-13T14:09:08.929Z,24.58
2022-11-13T14:12:09.822Z,22.27
2022-11-13T14:14:52.930Z,32.08
2022-11-13T14:17:46.946Z,24.05
2022-11-13T14:20:33.940Z,25.02
2022-11-13T14:23:07.984Z,21.63
2022-11-13T14:26:02.954Z,21.73
2022-11-13T14:29:07.937Z,34.92
2022-11-13T14:31:48.986Z,35.13
2022-11-13T14:34:37.950Z,29.85
2022-11-13T14:37:21.008Z,22.58
2022-11-13T14:40:10.954Z,22.20
2022-11-13T14:42:51.019Z,40.88
2022-11-13T14:45:38.968Z,48.03
2022-11-13T14:48:36.031Z,35.00
2022-11-13T14:51:37.961Z,29.90
2022-11-13T14:54:19.962Z,25.27
2022-11-13T14:57:17.950Z,24.15
2022-11-13T14:59:57.958Z,22.88
2022-11-13T15:02:51.958Z,27.88
2022-11-13T15:05:45.952Z,25.35
2022-11-13T15:08:39.948Z,25.52
2022-11-13T15:11:29.982Z,28.25
2022-11-13T15:14:09.946Z,30.23
2022-11-13T15:17:05.941Z,29.23
2022-11-13T15:19:58.951Z,30.27
2022-11-13T15:22:32.238Z,33.08
2022-11-13T15:25:23.978Z,29.38
2022-11-13T15:28:03.970Z,28.05
2022-11-13T15:30:50.978Z,30.02
2022-11-13T15:33:24.047Z,33.45
2022-11-13T15:36:10.967Z,31.45
2022-11-13T15:38:50.971Z,28.58
2022-11-13T15:41:44.979Z,32.22
2022-11-13T15:44:31.992Z,36.88
2022-11-13T15:47:05.049Z,34.97
2022-11-13T15:50:10.180Z,32.35
2022-11-13T15:52:48.035Z,39.13
2022-11-13T15:55:36.973Z,47.80
2022-11-13T15:58:10.047Z,44.55
2022-11-13T16:00:56.989Z,64.72
2022-11-13T16:03:32.101Z,78.35
2022-11-13T16:06:21.993Z,80.47
2022-11-13T16:09:02.974Z,79.60
2022-11-13T16:11:49.985Z,70.03
2022-11-13T16:14:29.980Z,70.32
2022-11-13T16:17:28.994Z,64.18
2022-11-13T16:20:25.996Z,53.00
2022-11-13T16:23:12.993Z,49.60
2022-11-13T16:25:46.065Z,47.42
2022-11-13T16:28:41.978Z,54.15
2022-11-13T16:31:30.116Z,50.70
2022-11-13T16:34:16.991Z,52.72
2022-11-13T16:36:50.075Z,51.40
2022-11-13T16:39:36.994Z,45.13
2022-11-13T16:42:17.010Z,44.38
2022-11-13T16:45:10.985Z,40.50
2022-11-13T16:47:57.987Z,49.15
2022-11-13T16:50:39.522Z,54.45
2022-11-13T16:53:26.135Z,55.95
2022-11-13T16:56:06.009Z,59.22
2022-11-13T16:58:53.013Z,47.00
2022-11-13T17:01:27.201Z,60.65
2022-11-13T17:04:14.045Z,57.10
2022-11-13T17:06:56.819Z,92.57
2022-11-13T17:10:10.127Z,78.85
2022-11-13T17:12:53.034Z,79.10
2022-11-13T17:15:47.036Z,75.78
2022-11-13T17:18:34.001Z,76.40
2022-11-13T17:21:07.096Z,67.30
2022-11-13T17:24:01.021Z,67.32
2022-11-13T17:26:54.999Z,62.35
2022-11-13T17:29:41.999Z,69.53
2022-11-13T17:32:22.010Z,72.90
2022-11-13T17:35:16.045Z,74.55
2022-11-13T17:38:03.000Z,71.72
2022-11-13T17:40:43.037Z,71.03
2022-11-13T17:43:30.330Z,67.88
2022-11-13T17:46:04.088Z,68.53
2022-11-13T17:48:51.041Z,73.53
2022-11-13T17:51:24.100Z,68.20
2022-11-13T17:54:11.050Z,68.50
2022-11-13T17:56:51.006Z,66.55
2022-11-13T17:59:38.015Z,64.65
2022-11-13T18:02:11.152Z,69.85
2022-11-13T18:04:58.016Z,70.00
2022-11-13T18:07:38.024Z,92.05
2022-11-13T18:10:32.027Z,75.38
2022-11-13T18:13:19.050Z,79.95
2022-11-13T18:15:52.090Z,81.40
2022-11-13T18:18:39.014Z,67.82
2022-11-13T18:21:40.698Z,76.70
2022-11-13T18:24:35.123Z,72.72
2022-11-13T18:27:22.045Z,86.05
2022-11-13T18:29:55.106Z,115.75
2022-11-13T18:32:42.054Z,99.25
2022-11-13T18:35:15.108Z,102.88
2022-11-13T18:38:03.046Z,113.45
2022-11-13T18:40:43.035Z,115.75
2022-11-13T18:43:37.028Z,120.90
2022-11-13T18:46:34.053Z,109.63
2022-11-13T18:49:28.048Z,103.38
2022-11-13T18:52:22.058Z,101.45
2022-11-13T18:55:09.055Z,106.00
2022-11-13T18:57:42.109Z,94.78
2022-11-13T19:00:29.057Z,112.75
2022-11-13T19:03:09.075Z,101.75
2022-11-13T19:06:04.094Z,87.28
2022-11-13T19:08:51.046Z,94.45
2022-11-13T19:11:25.125Z,71.97
2022-11-13T19:14:12.044Z,95.82
2022-11-13T19:16:53.045Z,84.28
2022-11-13T19:19:49.076Z,62.47
2022-11-13T19:22:36.054Z,66.38
2022-11-13T19:25:09.219Z,68.63
2022-11-13T19:27:56.056Z,81.85
2022-11-13T19:30:29.674Z,53.83
2022-11-13T19:33:16.061Z,54.28
2022-11-13T19:35:49.134Z,61.22
2022-11-13T19:38:36.077Z,79.20
2022-11-13T19:41:10.153Z,60.85
2022-11-13T19:43:57.045Z,64.93
2022-11-13T19:46:38.080Z,50.75
2022-11-13T19:49:25.062Z,64.63
2022-11-13T19:52:07.078Z,58.03
2022-11-13T19:55:01.073Z,57.90
2022-11-13T19:57:49.093Z,85.22
2022-11-13T20:00:23.269Z,62.08
2022-11-13T20:03:10.056Z,69.30
2022-11-13T20:05:47.158Z,59.53
2022-11-13T20:08:34.436Z,68.75
2022-11-13T20:11:22.109Z,56.25
2022-11-13T20:14:16.083Z,50.80
2022-11-13T20:17:10.090Z,39.95
2022-11-13T20:19:57.068Z,50.40
2022-11-13T20:22:38.226Z,44.72
2022-11-13T20:25:25.080Z,38.30
2022-11-13T20:27:58.154Z,43.38
2022-11-13T20:30:45.093Z,36.90
2022-11-13T20:33:22.422Z,34.22
2022-11-13T20:36:11.047Z,49.65
2022-11-13T20:38:52.107Z,43.05
2022-11-13T20:41:46.067Z,43.47
2022-11-13T20:44:40.101Z,51.75
2022-11-13T20:47:34.086Z,44.72
2022-11-13T20:50:21.106Z,49.08
2022-11-13T20:52:54.192Z,51.10
2022-11-13T20:55:41.117Z,49.33
2022-11-13T20:58:14.186Z,52.00
2022-11-13T21:01:08.181Z,58.13
2022-11-13T21:03:51.090Z,61.25
2022-11-13T21:06:45.112Z,55.45
2022-11-13T21:09:32.124Z,54.15
2022-11-13T21:12:05.176Z,61.22
2022-11-13T21:14:52.098Z,53.35
2022-11-13T21:17:32.115Z,53.80
2022-11-13T21:20:26.099Z,50.03
2022-11-13T21:23:13.119Z,50.38
2022-11-13T21:25:46.166Z,55.90
2022-11-13T21:28:33.974Z,58.55
2022-11-13T21:31:35.122Z,40.10
2022-11-13T21:34:22.095Z,39.08
2022-11-13T21:36:55.230Z,62.03
2022-11-13T21:39:42.129Z,46.10
2022-11-13T21:42:22.115Z,49.15
2022-11-13T21:45:16.109Z,74.82
2022-11-13T21:48:10.125Z,64.13
2022-11-13T21:50:57.113Z,53.22
2022-11-13T21:53:30.183Z,49.85
2022-11-13T21:56:17.159Z,54.78
2022-11-13T21:58:51.258Z,41.47
2022-11-13T22:01:39.167Z,56.47
2022-11-13T22:04:13.191Z,45.55
2022-11-13T22:07:00.184Z,40.63
2022-11-13T22:09:33.198Z,53.88
2022-11-13T22:12:20.123Z,58.17
2022-11-13T22:14:53.193Z,93.40
2022-11-13T22:17:40.108Z,57.72
2022-11-13T22:20:14.265Z,48.45
2022-11-13T22:23:01.121Z,71.18
2022-11-13T22:25:34.176Z,54.90
2022-11-13T22:28:21.120Z,60.42
2022-11-13T22:30:54.477Z,62.47
2022-11-13T22:33:47.800Z,55.50
2022-11-13T22:36:25.292Z,83.57
2022-11-13T22:39:13.116Z,63.58
2022-11-13T22:41:46.286Z,58.25
2022-11-13T22:44:54.324Z,49.67
2022-11-13T22:47:37.917Z,50.78
2022-11-13T22:50:32.134Z,59.13
2022-11-13T22:53:21.161Z,49.53
2022-11-13T22:55:54.210Z,54.63
2022-11-13T22:58:41.125Z,44.20
2022-11-13T23:01:19.298Z,46.03
2022-11-13T23:04:08.128Z,34.90
2022-11-13T23:06:43.342Z,47.88
2022-11-13T23:09:30.141Z,45.22
2022-11-13T23:12:10.145Z,36.70
2022-11-13T23:15:04.150Z,41.20
2022-11-13T23:17:53.146Z,50.97
2022-11-13T23:20:26.235Z,37.78
2022-11-13T23:23:13.133Z,39.80
2022-11-13T23:25:46.221Z,42.58
2022-11-13T23:28:34.138Z,30.88
2022-11-13T23:31:07.228Z,40.50
2022-11-13T23:33:54.165Z,32.50
2022-11-13T23:36:28.193Z,28.08
2022-11-13T23:39:15.162Z,44.35
2022-11-13T23:41:55.154Z,57.00
2022-11-13T23:44:49.137Z,31.85
2022-11-13T23:47:36.170Z,42.22
2022-11-13T23:50:09.274Z,40.05
2022-11-13T23:52:56.161Z,37.53
2022-11-13T23:55:29.226Z,52.78
2022-11-13T23:58:22.167Z,47.05
